sensor_id;sensor_type;location;lat;lon;timestamp;temperature;humidity
22202;DHT22;11266;51.522;6.302;2024-03-23T00:52:32;7.50;99.90
22202;DHT22;11266;51.522;6.302;2024-03-23T00:54:04;7.50;99.90
22202;DHT22;11266;51.522;6.302;2024-03-23T00:54:50;7.50;99.90
22202;DHT22;11266;51.522;6.302;2024-03-23T00:55:35;7.50;99.90
22202;DHT22;11266;51.522;6.302;2024-03-23T00:56:21;7.50;99.90
22202;DHT22;11266;51.522;6.302;2024-03-23T00:57:06;7.50;99.90
22202;DHT22;11266;51.522;6.302;2024-03-23T00:57:52;7.50;99.90
22202;DHT22;11266;51.522;6.302;2024-03-23T00:58:37;7.50;99.90
22202;DHT22;11266;51.522;6.302;2024-03-23T00:59:23;7.50;99.90
22202;DHT22;11266;51.522;6.302;2024-03-23T01:00:12;7.50;99.90
22202;DHT22;11266;51.522;6.302;2024-03-23T01:00:58;7.50;99.90
22202;DHT22;11266;51.522;6.302;2024-03-23T01:01:44;7.50;99.90
22202;DHT22;11266;51.522;6.302;2024-03-23T01:02:29;7.50;99.90
22202;DHT22;11266;51.522;6.302;2024-03-23T01:03:15;7.50;99.90
22202;DHT22;11266;51.522;6.302;2024-03-23T01:04:00;7.50;99.90
22202;DHT22;11266;51.522;6.302;2024-03-23T01:04:46;7.50;99.90
22202;DHT22;11266;51.522;6.302;2024-03-23T01:05:31;7.50;99.90
22202;DHT22;11266;51.522;6.302;2024-03-23T01:06:17;7.50;99.90
22202;DHT22;11266;51.522;6.302;2024-03-23T01:07:02;7.50;99.90
22202;DHT22;11266;51.522;6.302;2024-03-23T01:07:48;7.50;99.90
22202;DHT22;11266;51.522;6.302;2024-03-23T01:08:33;7.50;99.90
22202;DHT22;11266;51.522;6.302;2024-03-23T01:09:19;7.40;99.90
22202;DHT22;11266;51.522;6.302;2024-03-23T01:10:05;7.40;99.90
22202;DHT22;11266;51.522;6.302;2024-03-23T01:10:57;7.50;99.90
22202;DHT22;11266;51.522;6.302;2024-03-23T01:11:43;7.40;99.90
22202;DHT22;11266;51.522;6.302;2024-03-23T01:12:29;7.40;99.90
22202;DHT22;11266;51.522;6.302;2024-03-23T01:13:15;7.40;99.90
22202;DHT22;11266;51.522;6.302;2024-03-23T01:14:00;7.40;99.90
22202;DHT22;11266;51.522;6.302;2024-03-23T01:14:46;7.40;99.90
22202;DHT22;11266;51.522;6.302;2024-03-23T01:15:31;7.40;99.90
22202;DHT22;11266;51.522;6.302;2024-03-23T01:16:17;7.40;99.90
22202;DHT22;11266;51.522;6.302;2024-03-23T01:17:03;7.40;99.90
22202;DHT22;11266;51.522;6.302;2024-03-23T01:17:48;7.40;99.90
22202;DHT22;11266;51.522;6.302;2024-03-23T01:18:34;7.40;99.90
22202;DHT22;11266;51.522;6.302;2024-03-23T01:19:19;7.40;99.90
22202;DHT22;11266;51.522;6.302;2024-03-23T01:20:05;7.40;99.90
22202;DHT22;11266;51.522;6.302;2024-03-23T01:20:51;7.30;99.90
22202;DHT22;11266;51.522;6.302;2024-03-23T01:21:37;7.30;99.90
22202;DHT22;11266;51.522;6.302;2024-03-23T01:22:22;7.40;99.90
22202;DHT22;11266;51.522;6.302;2024-03-23T01:23:08;7.30;99.90
22202;DHT22;11266;51.522;6.302;2024-03-23T01:23:53;7.40;99.90
22202;DHT22;11266;51.522;6.302;2024-03-23T01:24:39;7.30;99.90
22202;DHT22;11266;51.522;6.302;2024-03-23T01:25:24;7.40;99.90
22202;DHT22;11266;51.522;6.302;2024-03-23T01:26:10;7.30;99.90
22202;DHT22;11266;51.522;6.302;2024-03-23T01:26:55;7.30;99.90
22202;DHT22;11266;51.522;6.302;2024-03-23T01:27:41;7.30;99.90
22202;DHT22;11266;51.522;6.302;2024-03-23T01:28:26;7.30;99.90
22202;DHT22;11266;51.522;6.302;2024-03-23T01:29:12;7.30;99.90
22202;DHT22;11266;51.522;6.302;2024-03-23T01:29:57;7.30;99.90
22202;DHT22;11266;51.522;6.302;2024-03-23T01:30:43;7.30;99.90
22202;DHT22;11266;51.522;6.302;2024-03-23T01:31:28;7.30;99.90
22202;DHT22;11266;51.522;6.302;2024-03-23T01:32:14;7.30;99.90
22202;DHT22;11266;51.522;6.302;2024-03-23T01:33:00;7.20;99.90
22202;DHT22;11266;51.522;6.302;2024-03-23T01:33:45;7.30;99.90
22202;DHT22;11266;51.522;6.302;2024-03-23T01:34:31;7.20;99.90
22202;DHT22;11266;51.522;6.302;2024-03-23T01:35:16;7.20;99.90
22202;DHT22;11266;51.522;6.302;2024-03-23T01:36:02;7.20;99.90
22202;DHT22;11266;51.522;6.302;2024-03-23T01:36:48;7.20;99.90
22202;DHT22;11266;51.522;6.302;2024-03-23T01:37:34;7.20;99.90
22202;DHT22;11266;51.522;6.302;2024-03-23T01:38:20;7.20;99.90
22202;DHT22;11266;51.522;6.302;2024-03-23T01:39:05;7.20;99.90
22202;DHT22;11266;51.522;6.302;2024-03-23T01:39:51;7.20;99.90
22202;DHT22;11266;51.522;6.302;2024-03-23T01:40:36;7.20;99.90
22202;DHT22;11266;51.522;6.302;2024-03-23T01:41:24;7.20;99.90
22202;DHT22;11266;51.522;6.302;2024-03-23T01:42:09;7.20;99.90
22202;DHT22;11266;51.522;6.302;2024-03-23T01:43:03;7.20;99.90
22202;DHT22;11266;51.522;6.302;2024-03-23T01:43:48;7.20;99.90
22202;DHT22;11266;51.522;6.302;2024-03-23T01:44:34;7.20;99.90
22202;DHT22;11266;51.522;6.302;2024-03-23T01:45:19;7.20;99.90
22202;DHT22;11266;51.522;6.302;2024-03-23T01:46:06;7.20;99.90
22202;DHT22;11266;51.522;6.302;2024-03-23T01:46:52;7.20;99.90
22202;DHT22;11266;51.522;6.302;2024-03-23T01:47:38;7.20;99.90
22202;DHT22;11266;51.522;6.302;2024-03-23T01:48:23;7.20;99.90
22202;DHT22;11266;51.522;6.302;2024-03-23T01:49:10;7.20;99.90
22202;DHT22;11266;51.522;6.302;2024-03-23T01:49:57;7.20;99.90
22202;DHT22;11266;51.522;6.302;2024-03-23T01:50:42;7.20;99.90
22202;DHT22;11266;51.522;6.302;2024-03-23T01:51:29;7.20;99.90
22202;DHT22;11266;51.522;6.302;2024-03-23T01:52:14;7.20;99.90
22202;DHT22;11266;51.522;6.302;2024-03-23T01:53:02;7.20;99.90
22202;DHT22;11266;51.522;6.302;2024-03-23T01:53:48;7.20;99.90
22202;DHT22;11266;51.522;6.302;2024-03-23T01:54:34;7.20;99.90
22202;DHT22;11266;51.522;6.302;2024-03-23T01:55:20;7.20;99.90
22202;DHT22;11266;51.522;6.302;2024-03-23T01:56:06;7.20;99.90
22202;DHT22;11266;51.522;6.302;2024-03-23T01:56:52;7.20;99.90
22202;DHT22;11266;51.522;6.302;2024-03-23T01:57:38;7.20;99.90
22202;DHT22;11266;51.522;6.302;2024-03-23T01:58:23;7.20;99.90
22202;DHT22;11266;51.522;6.302;2024-03-23T01:59:09;7.20;99.90
22202;DHT22;11266;51.522;6.302;2024-03-23T01:59:54;7.20;99.90
22202;DHT22;11266;51.522;6.302;2024-03-23T02:00:40;7.20;99.90
22202;DHT22;11266;51.522;6.302;2024-03-23T02:01:25;7.20;99.90
22202;DHT22;11266;51.522;6.302;2024-03-23T02:02:11;7.20;99.90
22202;DHT22;11266;51.522;6.302;2024-03-23T02:02:57;7.20;99.90
22202;DHT22;11266;51.522;6.302;2024-03-23T02:03:42;7.20;99.90
22202;DHT22;11266;51.522;6.302;2024-03-23T02:04:28;7.20;99.90
22202;DHT22;11266;51.522;6.302;2024-03-23T02:05:14;7.10;99.90
22202;DHT22;11266;51.522;6.302;2024-03-23T02:06:00;7.20;99.90
22202;DHT22;11266;51.522;6.302;2024-03-23T02:06:45;7.10;99.90
22202;DHT22;11266;51.522;6.302;2024-03-23T02:07:31;7.10;99.90
22202;DHT22;11266;51.522;6.302;2024-03-23T02:08:18;7.20;99.90
22202;DHT22;11266;51.522;6.302;2024-03-23T02:09:03;7.10;99.90
22202;DHT22;11266;51.522;6.302;2024-03-23T02:09:53;7.10;99.90
22202;DHT22;11266;51.522;6.302;2024-03-23T02:10:39;7.10;99.90
22202;DHT22;11266;51.522;6.302;2024-03-23T02:11:24;7.10;99.90
22202;DHT22;11266;51.522;6.302;2024-03-23T02:12:10;7.10;99.90
22202;DHT22;11266;51.522;6.302;2024-03-23T02:12:56;7.10;99.90
22202;DHT22;11266;51.522;6.302;2024-03-23T02:13:41;7.10;99.90
22202;DHT22;11266;51.522;6.302;2024-03-23T02:14:27;7.10;99.90
22202;DHT22;11266;51.522;6.302;2024-03-23T02:15:12;7.10;99.90
22202;DHT22;11266;51.522;6.302;2024-03-23T02:15:58;7.10;99.90
22202;DHT22;11266;51.522;6.302;2024-03-23T02:16:43;7.10;99.90
22202;DHT22;11266;51.522;6.302;2024-03-23T02:17:30;7.00;99.90
22202;DHT22;11266;51.522;6.302;2024-03-23T02:18:16;7.10;99.90
22202;DHT22;11266;51.522;6.302;2024-03-23T02:19:01;7.00;99.90
22202;DHT22;11266;51.522;6.302;2024-03-23T02:19:47;7.00;99.90
22202;DHT22;11266;51.522;6.302;2024-03-23T02:20:33;7.00;99.90
22202;DHT22;11266;51.522;6.302;2024-03-23T02:21:18;7.00;99.90
22202;DHT22;11266;51.522;6.302;2024-03-23T02:22:04;7.00;99.90
22202;DHT22;11266;51.522;6.302;2024-03-23T02:22:52;7.10;99.90
22202;DHT22;11266;51.522;6.302;2024-03-23T02:23:38;7.00;99.90
22202;DHT22;11266;51.522;6.302;2024-03-23T02:24:23;7.00;99.90
22202;DHT22;11266;51.522;6.302;2024-03-23T02:25:09;7.10;99.90
22202;DHT22;11266;51.522;6.302;2024-03-23T02:25:54;7.00;99.90
22202;DHT22;11266;51.522;6.302;2024-03-23T02:26:40;7.00;99.90
22202;DHT22;11266;51.522;6.302;2024-03-23T02:27:25;7.00;99.90
22202;DHT22;11266;51.522;6.302;2024-03-23T02:28:11;7.00;99.90
22202;DHT22;11266;51.522;6.302;2024-03-23T02:28:57;7.00;99.90
22202;DHT22;11266;51.522;6.302;2024-03-23T02:29:42;7.00;99.90
22202;DHT22;11266;51.522;6.302;2024-03-23T02:30:28;7.00;99.90
22202;DHT22;11266;51.522;6.302;2024-03-23T02:31:13;7.00;99.90
22202;DHT22;11266;51.522;6.302;2024-03-23T02:32:00;7.00;99.90
22202;DHT22;11266;51.522;6.302;2024-03-23T02:32:46;7.00;99.90
22202;DHT22;11266;51.522;6.302;2024-03-23T02:33:32;7.00;99.90
22202;DHT22;11266;51.522;6.302;2024-03-23T02:34:19;7.10;99.90
22202;DHT22;11266;51.522;6.302;2024-03-23T02:35:05;7.10;99.90
22202;DHT22;11266;51.522;6.302;2024-03-23T02:35:51;7.00;99.90
22202;DHT22;11266;51.522;6.302;2024-03-23T02:36:40;7.00;99.90
22202;DHT22;11266;51.522;6.302;2024-03-23T02:37:26;7.00;99.90
22202;DHT22;11266;51.522;6.302;2024-03-23T02:38:12;7.00;99.90
22202;DHT22;11266;51.522;6.302;2024-03-23T02:38:57;7.00;99.90
22202;DHT22;11266;51.522;6.302;2024-03-23T02:39:43;7.00;99.90
22202;DHT22;11266;51.522;6.302;2024-03-23T02:40:28;7.00;99.90
22202;DHT22;11266;51.522;6.302;2024-03-23T02:41:14;7.00;99.90
22202;DHT22;11266;51.522;6.302;2024-03-23T02:42:00;7.00;99.90
22202;DHT22;11266;51.522;6.302;2024-03-23T02:42:45;7.00;99.90
22202;DHT22;11266;51.522;6.302;2024-03-23T02:43:31;7.00;99.90
22202;DHT22;11266;51.522;6.302;2024-03-23T02:44:17;7.00;99.90
22202;DHT22;11266;51.522;6.302;2024-03-23T02:45:03;7.00;99.90
22202;DHT22;11266;51.522;6.302;2024-03-23T02:45:50;7.00;99.90
22202;DHT22;11266;51.522;6.302;2024-03-23T02:46:35;7.00;99.90
22202;DHT22;11266;51.522;6.302;2024-03-23T02:47:21;7.00;99.90
22202;DHT22;11266;51.522;6.302;2024-03-23T02:48:06;7.00;99.90
22202;DHT22;11266;51.522;6.302;2024-03-23T02:48:52;7.00;99.90
22202;DHT22;11266;51.522;6.302;2024-03-23T02:49:38;6.90;99.90
22202;DHT22;11266;51.522;6.302;2024-03-23T02:50:23;6.90;99.90
22202;DHT22;11266;51.522;6.302;2024-03-23T02:51:09;7.00;99.90
22202;DHT22;11266;51.522;6.302;2024-03-23T02:51:54;6.90;99.90
22202;DHT22;11266;51.522;6.302;2024-03-23T02:52:40;6.90;99.90
22202;DHT22;11266;51.522;6.302;2024-03-23T02:53:25;6.90;99.90
22202;DHT22;11266;51.522;6.302;2024-03-23T02:54:11;6.90;99.90
22202;DHT22;11266;51.522;6.302;2024-03-23T02:54:57;6.90;99.90
22202;DHT22;11266;51.522;6.302;2024-03-23T02:55:42;6.90;99.90
22202;DHT22;11266;51.522;6.302;2024-03-23T02:56:28;6.90;99.90
22202;DHT22;11266;51.522;6.302;2024-03-23T02:57:14;6.90;99.90
22202;DHT22;11266;51.522;6.302;2024-03-23T02:57:59;6.90;99.90
22202;DHT22;11266;51.522;6.302;2024-03-23T02:58:47;6.90;99.90
22202;DHT22;11266;51.522;6.302;2024-03-23T02:59:32;6.90;99.90
22202;DHT22;11266;51.522;6.302;2024-03-23T03:00:18;6.90;99.90
22202;DHT22;11266;51.522;6.302;2024-03-23T03:01:03;6.90;99.90
22202;DHT22;11266;51.522;6.302;2024-03-23T03:01:49;6.80;99.90
22202;DHT22;11266;51.522;6.302;2024-03-23T03:02:34;6.80;99.90
22202;DHT22;11266;51.522;6.302;2024-03-23T03:03:20;6.80;99.90
22202;DHT22;11266;51.522;6.302;2024-03-23T03:04:06;6.80;99.90
22202;DHT22;11266;51.522;6.302;2024-03-23T03:04:51;6.90;99.90
22202;DHT22;11266;51.522;6.302;2024-03-23T03:05:37;6.90;99.90
22202;DHT22;11266;51.522;6.302;2024-03-23T03:06:24;6.90;99.90
22202;DHT22;11266;51.522;6.302;2024-03-23T03:07:09;6.90;99.90
22202;DHT22;11266;51.522;6.302;2024-03-23T03:07:55;6.90;99.90
22202;DHT22;11266;51.522;6.302;2024-03-23T03:08:40;6.90;99.90
22202;DHT22;11266;51.522;6.302;2024-03-23T03:09:26;6.90;99.90
22202;DHT22;11266;51.522;6.302;2024-03-23T03:10:11;6.80;99.90
22202;DHT22;11266;51.522;6.302;2024-03-23T03:10:57;6.80;99.90
22202;DHT22;11266;51.522;6.302;2024-03-23T03:11:43;6.80;99.90
22202;DHT22;11266;51.522;6.302;2024-03-23T03:12:29;6.80;99.90
22202;DHT22;11266;51.522;6.302;2024-03-23T03:13:14;6.80;99.90
22202;DHT22;11266;51.522;6.302;2024-03-23T03:14:00;6.80;99.90
22202;DHT22;11266;51.522;6.302;2024-03-23T03:14:45;6.80;99.90
22202;DHT22;11266;51.522;6.302;2024-03-23T03:15:31;6.80;99.90
22202;DHT22;11266;51.522;6.302;2024-03-23T03:16:16;6.80;99.90
22202;DHT22;11266;51.522;6.302;2024-03-23T03:17:02;6.80;99.90
22202;DHT22;11266;51.522;6.302;2024-03-23T03:17:48;6.80;99.90
22202;DHT22;11266;51.522;6.302;2024-03-23T03:18:33;6.80;99.90
22202;DHT22;11266;51.522;6.302;2024-03-23T03:19:19;6.80;99.90
22202;DHT22;11266;51.522;6.302;2024-03-23T03:20:05;6.80;99.90
22202;DHT22;11266;51.522;6.302;2024-03-23T03:20:54;6.80;99.90
22202;DHT22;11266;51.522;6.302;2024-03-23T03:21:40;6.80;99.90
22202;DHT22;11266;51.522;6.302;2024-03-23T03:22:25;6.80;99.90
22202;DHT22;11266;51.522;6.302;2024-03-23T03:23:11;6.80;99.90
22202;DHT22;11266;51.522;6.302;2024-03-23T03:23:57;6.80;99.90
22202;DHT22;11266;51.522;6.302;2024-03-23T03:24:42;6.80;99.90
22202;DHT22;11266;51.522;6.302;2024-03-23T03:25:28;6.80;99.90
22202;DHT22;11266;51.522;6.302;2024-03-23T03:26:13;6.80;99.90
22202;DHT22;11266;51.522;6.302;2024-03-23T03:26:59;6.80;99.90
22202;DHT22;11266;51.522;6.302;2024-03-23T03:27:44;6.80;99.90
22202;DHT22;11266;51.522;6.302;2024-03-23T03:28:31;6.70;99.90
22202;DHT22;11266;51.522;6.302;2024-03-23T03:29:18;6.80;99.90
22202;DHT22;11266;51.522;6.302;2024-03-23T03:30:03;6.80;99.90
22202;DHT22;11266;51.522;6.302;2024-03-23T03:30:51;6.80;99.90
22202;DHT22;11266;51.522;6.302;2024-03-23T03:31:37;6.80;99.90
22202;DHT22;11266;51.522;6.302;2024-03-23T03:32:22;6.80;99.90
22202;DHT22;11266;51.522;6.302;2024-03-23T03:33:08;6.80;99.90
22202;DHT22;11266;51.522;6.302;2024-03-23T03:33:53;6.80;99.90
22202;DHT22;11266;51.522;6.302;2024-03-23T03:34:39;6.80;99.90
22202;DHT22;11266;51.522;6.302;2024-03-23T03:35:25;6.80;99.90
22202;DHT22;11266;51.522;6.302;2024-03-23T03:36:10;6.80;99.90
22202;DHT22;11266;51.522;6.302;2024-03-23T03:36:57;6.80;99.90
22202;DHT22;11266;51.522;6.302;2024-03-23T03:37:42;6.80;99.90
22202;DHT22;11266;51.522;6.302;2024-03-23T03:38:28;6.80;99.90
22202;DHT22;11266;51.522;6.302;2024-03-23T03:39:14;6.80;99.90
22202;DHT22;11266;51.522;6.302;2024-03-23T03:39:59;6.80;99.90
22202;DHT22;11266;51.522;6.302;2024-03-23T03:40:45;6.80;99.90
22202;DHT22;11266;51.522;6.302;2024-03-23T03:41:31;6.70;99.90
22202;DHT22;11266;51.522;6.302;2024-03-23T03:42:17;6.80;99.90
22202;DHT22;11266;51.522;6.302;2024-03-23T03:43:03;6.70;99.90
22202;DHT22;11266;51.522;6.302;2024-03-23T03:43:49;6.70;99.90
22202;DHT22;11266;51.522;6.302;2024-03-23T03:44:34;6.70;99.90
22202;DHT22;11266;51.522;6.302;2024-03-23T03:45:21;6.70;99.90
22202;DHT22;11266;51.522;6.302;2024-03-23T03:46:07;6.70;99.90
22202;DHT22;11266;51.522;6.302;2024-03-23T03:46:53;6.70;99.90
22202;DHT22;11266;51.522;6.302;2024-03-23T03:47:39;6.70;99.90
22202;DHT22;11266;51.522;6.302;2024-03-23T03:48:24;6.70;99.90
22202;DHT22;11266;51.522;6.302;2024-03-23T03:49:10;6.70;99.90
22202;DHT22;11266;51.522;6.302;2024-03-23T03:49:55;6.70;99.90
22202;DHT22;11266;51.522;6.302;2024-03-23T03:50:41;6.70;99.90
22202;DHT22;11266;51.522;6.302;2024-03-23T03:51:27;6.70;99.90
22202;DHT22;11266;51.522;6.302;2024-03-23T03:52:12;6.80;99.90
22202;DHT22;11266;51.522;6.302;2024-03-23T03:52:58;6.70;99.90
22202;DHT22;11266;51.522;6.302;2024-03-23T03:53:43;6.70;99.90
22202;DHT22;11266;51.522;6.302;2024-03-23T03:54:30;6.70;99.90
22202;DHT22;11266;51.522;6.302;2024-03-23T03:55:16;6.70;99.90
22202;DHT22;11266;51.522;6.302;2024-03-23T03:56:02;6.70;99.90
22202;DHT22;11266;51.522;6.302;2024-03-23T03:56:47;6.60;99.90
22202;DHT22;11266;51.522;6.302;2024-03-23T03:57:33;6.60;99.90
22202;DHT22;11266;51.522;6.302;2024-03-23T03:58:19;6.60;99.90
22202;DHT22;11266;51.522;6.302;2024-03-23T03:59:05;6.60;99.90
22202;DHT22;11266;51.522;6.302;2024-03-23T03:59:51;6.60;99.90
22202;DHT22;11266;51.522;6.302;2024-03-23T04:00:37;6.60;99.90
22202;DHT22;11266;51.522;6.302;2024-03-23T04:01:22;6.60;99.90
22202;DHT22;11266;51.522;6.302;2024-03-23T04:02:08;6.60;99.90
22202;DHT22;11266;51.522;6.302;2024-03-23T04:02:53;6.60;99.90
22202;DHT22;11266;51.522;6.302;2024-03-23T04:03:39;6.60;99.90
22202;DHT22;11266;51.522;6.302;2024-03-23T04:04:28;6.60;99.90
22202;DHT22;11266;51.522;6.302;2024-03-23T04:05:14;6.60;99.90
22202;DHT22;11266;51.522;6.302;2024-03-23T04:06:00;6.60;99.90
22202;DHT22;11266;51.522;6.302;2024-03-23T04:06:45;6.60;99.90
22202;DHT22;11266;51.522;6.302;2024-03-23T04:07:31;6.60;99.90
22202;DHT22;11266;51.522;6.302;2024-03-23T04:08:16;6.60;99.90
22202;DHT22;11266;51.522;6.302;2024-03-23T04:09:02;6.60;99.90
22202;DHT22;11266;51.522;6.302;2024-03-23T04:09:48;6.60;99.90
22202;DHT22;11266;51.522;6.302;2024-03-23T04:10:33;6.60;99.90
22202;DHT22;11266;51.522;6.302;2024-03-23T04:11:19;6.60;99.90
22202;DHT22;11266;51.522;6.302;2024-03-23T04:12:05;6.60;99.90
22202;DHT22;11266;51.522;6.302;2024-03-23T04:12:50;6.60;99.90
22202;DHT22;11266;51.522;6.302;2024-03-23T04:13:36;6.60;99.90
22202;DHT22;11266;51.522;6.302;2024-03-23T04:14:21;6.60;99.90
22202;DHT22;11266;51.522;6.302;2024-03-23T04:15:07;6.50;99.90
22202;DHT22;11266;51.522;6.302;2024-03-23T04:15:56;6.50;99.90
22202;DHT22;11266;51.522;6.302;2024-03-23T04:16:42;6.50;99.90
22202;DHT22;11266;51.522;6.302;2024-03-23T04:17:27;6.50;99.90
22202;DHT22;11266;51.522;6.302;2024-03-23T04:18:17;6.60;99.90
22202;DHT22;11266;51.522;6.302;2024-03-23T04:19:02;6.60;99.90
22202;DHT22;11266;51.522;6.302;2024-03-23T04:19:49;6.60;99.90
22202;DHT22;11266;51.522;6.302;2024-03-23T04:20:35;6.60;99.90
22202;DHT22;11266;51.522;6.302;2024-03-23T04:21:22;6.60;99.90
22202;DHT22;11266;51.522;6.302;2024-03-23T04:22:08;6.60;99.90
22202;DHT22;11266;51.522;6.302;2024-03-23T04:22:54;6.60;99.90
22202;DHT22;11266;51.522;6.302;2024-03-23T04:23:39;6.60;99.90
22202;DHT22;11266;51.522;6.302;2024-03-23T04:24:25;6.60;99.90
22202;DHT22;11266;51.522;6.302;2024-03-23T04:25:12;6.50;99.90
22202;DHT22;11266;51.522;6.302;2024-03-23T04:26:03;6.60;99.90
22202;DHT22;11266;51.522;6.302;2024-03-23T04:26:49;6.60;99.90
22202;DHT22;11266;51.522;6.302;2024-03-23T04:27:35;6.50;99.90
22202;DHT22;11266;51.522;6.302;2024-03-23T04:28:20;6.50;99.90
22202;DHT22;11266;51.522;6.302;2024-03-23T04:29:06;6.60;99.90
22202;DHT22;11266;51.522;6.302;2024-03-23T04:29:52;6.50;99.90
22202;DHT22;11266;51.522;6.302;2024-03-23T04:30:38;6.60;99.90
22202;DHT22;11266;51.522;6.302;2024-03-23T04:31:23;6.50;99.90
22202;DHT22;11266;51.522;6.302;2024-03-23T04:32:09;6.60;99.90
22202;DHT22;11266;51.522;6.302;2024-03-23T04:32:54;6.50;99.90
22202;DHT22;11266;51.522;6.302;2024-03-23T04:33:40;6.60;99.90
22202;DHT22;11266;51.522;6.302;2024-03-23T04:34:26;6.50;99.90
22202;DHT22;11266;51.522;6.302;2024-03-23T04:35:11;6.60;99.90
22202;DHT22;11266;51.522;6.302;2024-03-23T04:35:58;6.50;99.90
22202;DHT22;11266;51.522;6.302;2024-03-23T04:36:43;6.50;99.90
22202;DHT22;11266;51.522;6.302;2024-03-23T04:37:29;6.60;99.90
22202;DHT22;11266;51.522;6.302;2024-03-23T04:38:14;6.60;99.90
22202;DHT22;11266;51.522;6.302;2024-03-23T04:39:00;6.60;99.90
22202;DHT22;11266;51.522;6.302;2024-03-23T04:39:46;6.60;99.90
22202;DHT22;11266;51.522;6.302;2024-03-23T04:40:32;6.60;99.90
22202;DHT22;11266;51.522;6.302;2024-03-23T04:41:18;6.60;99.90
22202;DHT22;11266;51.522;6.302;2024-03-23T04:42:04;6.60;99.90
22202;DHT22;11266;51.522;6.302;2024-03-23T04:42:50;6.60;99.90
22202;DHT22;11266;51.522;6.302;2024-03-23T04:43:35;6.60;99.90
22202;DHT22;11266;51.522;6.302;2024-03-23T04:44:21;6.50;99.90
22202;DHT22;11266;51.522;6.302;2024-03-23T04:45:07;6.50;99.90
22202;DHT22;11266;51.522;6.302;2024-03-23T04:45:52;6.60;99.90
22202;DHT22;11266;51.522;6.302;2024-03-23T04:46:38;6.50;99.90
22202;DHT22;11266;51.522;6.302;2024-03-23T04:47:23;6.50;99.90
22202;DHT22;11266;51.522;6.302;2024-03-23T04:48:09;6.50;99.90
22202;DHT22;11266;51.522;6.302;2024-03-23T04:48:54;6.50;99.90
22202;DHT22;11266;51.522;6.302;2024-03-23T04:49:41;6.50;99.90
22202;DHT22;11266;51.522;6.302;2024-03-23T04:50:27;6.50;99.90
22202;DHT22;11266;51.522;6.302;2024-03-23T04:51:25;6.50;99.90
22202;DHT22;11266;51.522;6.302;2024-03-23T04:52:10;6.50;99.90
22202;DHT22;11266;51.522;6.302;2024-03-23T04:52:56;6.50;99.90
22202;DHT22;11266;51.522;6.302;2024-03-23T04:53:41;6.50;99.90
22202;DHT22;11266;51.522;6.302;2024-03-23T04:54:27;6.50;99.90
22202;DHT22;11266;51.522;6.302;2024-03-23T04:55:14;6.50;99.90
22202;DHT22;11266;51.522;6.302;2024-03-23T04:55:59;6.50;99.90
22202;DHT22;11266;51.522;6.302;2024-03-23T04:56:45;6.50;99.90
22202;DHT22;11266;51.522;6.302;2024-03-23T04:57:31;6.50;99.90
22202;DHT22;11266;51.522;6.302;2024-03-23T04:58:16;6.50;99.90
22202;DHT22;11266;51.522;6.302;2024-03-23T04:59:02;6.50;99.90
22202;DHT22;11266;51.522;6.302;2024-03-23T04:59:49;6.50;99.90
22202;DHT22;11266;51.522;6.302;2024-03-23T05:00:35;6.50;99.90
22202;DHT22;11266;51.522;6.302;2024-03-23T05:01:20;6.50;99.90
22202;DHT22;11266;51.522;6.302;2024-03-23T05:02:07;6.40;99.90
22202;DHT22;11266;51.522;6.302;2024-03-23T05:02:52;6.40;99.90
22202;DHT22;11266;51.522;6.302;2024-03-23T05:03:38;6.40;99.90
22202;DHT22;11266;51.522;6.302;2024-03-23T05:04:24;6.40;99.90
22202;DHT22;11266;51.522;6.302;2024-03-23T05:05:09;6.40;99.90
22202;DHT22;11266;51.522;6.302;2024-03-23T05:05:55;6.40;99.90
22202;DHT22;11266;51.522;6.302;2024-03-23T05:06:40;6.30;99.90
22202;DHT22;11266;51.522;6.302;2024-03-23T05:07:26;6.30;99.90
22202;DHT22;11266;51.522;6.302;2024-03-23T05:08:11;6.30;99.90
22202;DHT22;11266;51.522;6.302;2024-03-23T05:08:58;6.30;99.90
22202;DHT22;11266;51.522;6.302;2024-03-23T05:09:43;6.30;99.90
22202;DHT22;11266;51.522;6.302;2024-03-23T05:10:29;6.30;99.90
22202;DHT22;11266;51.522;6.302;2024-03-23T05:11:14;6.30;99.90
22202;DHT22;11266;51.522;6.302;2024-03-23T05:12:01;6.40;99.90
22202;DHT22;11266;51.522;6.302;2024-03-23T05:12:46;6.30;99.90
22202;DHT22;11266;51.522;6.302;2024-03-23T05:13:32;6.30;99.90
22202;DHT22;11266;51.522;6.302;2024-03-23T05:14:17;6.30;99.90
22202;DHT22;11266;51.522;6.302;2024-03-23T05:15:04;6.30;99.90
22202;DHT22;11266;51.522;6.302;2024-03-23T05:15:56;6.30;99.90
22202;DHT22;11266;51.522;6.302;2024-03-23T05:16:41;6.30;99.90
22202;DHT22;11266;51.522;6.302;2024-03-23T05:17:27;6.30;99.90
22202;DHT22;11266;51.522;6.302;2024-03-23T05:18:12;6.30;99.90
22202;DHT22;11266;51.522;6.302;2024-03-23T05:18:58;6.20;99.90
22202;DHT22;11266;51.522;6.302;2024-03-23T05:19:43;6.20;99.90
22202;DHT22;11266;51.522;6.302;2024-03-23T05:20:29;6.20;99.90
22202;DHT22;11266;51.522;6.302;2024-03-23T05:21:15;6.20;99.90
22202;DHT22;11266;51.522;6.302;2024-03-23T05:22:00;6.20;99.90
22202;DHT22;11266;51.522;6.302;2024-03-23T05:22:46;6.10;99.90
22202;DHT22;11266;51.522;6.302;2024-03-23T05:23:31;6.20;99.90
22202;DHT22;11266;51.522;6.302;2024-03-23T05:24:17;6.10;99.90
22202;DHT22;11266;51.522;6.302;2024-03-23T05:25:03;6.10;99.90
22202;DHT22;11266;51.522;6.302;2024-03-23T05:25:50;6.10;99.90
22202;DHT22;11266;51.522;6.302;2024-03-23T05:26:36;6.10;99.90
22202;DHT22;11266;51.522;6.302;2024-03-23T05:27:21;6.10;99.90
22202;DHT22;11266;51.522;6.302;2024-03-23T05:28:07;6.10;99.90
22202;DHT22;11266;51.522;6.302;2024-03-23T05:28:52;6.10;99.90
22202;DHT22;11266;51.522;6.302;2024-03-23T05:29:44;6.10;99.90
22202;DHT22;11266;51.522;6.302;2024-03-23T05:30:29;6.10;99.90
22202;DHT22;11266;51.522;6.302;2024-03-23T05:31:25;6.20;99.90
22202;DHT22;11266;51.522;6.302;2024-03-23T05:32:10;6.20;99.90
22202;DHT22;11266;51.522;6.302;2024-03-23T05:32:56;6.10;99.90
22202;DHT22;11266;51.522;6.302;2024-03-23T05:33:42;6.20;99.90
22202;DHT22;11266;51.522;6.302;2024-03-23T05:34:27;6.10;99.90
22202;DHT22;11266;51.522;6.302;2024-03-23T05:35:14;6.10;99.90
22202;DHT22;11266;51.522;6.302;2024-03-23T05:36:01;6.10;99.90
22202;DHT22;11266;51.522;6.302;2024-03-23T05:36:47;6.10;99.90
22202;DHT22;11266;51.522;6.302;2024-03-23T05:37:34;6.10;99.90
22202;DHT22;11266;51.522;6.302;2024-03-23T05:38:20;6.00;99.90
22202;DHT22;11266;51.522;6.302;2024-03-23T05:39:05;6.00;99.90
22202;DHT22;11266;51.522;6.302;2024-03-23T05:39:51;6.00;99.90
22202;DHT22;11266;51.522;6.302;2024-03-23T05:40:37;6.00;99.90
22202;DHT22;11266;51.522;6.302;2024-03-23T05:41:25;6.00;99.90
22202;DHT22;11266;51.522;6.302;2024-03-23T05:42:10;5.90;99.90
22202;DHT22;11266;51.522;6.302;2024-03-23T05:42:56;5.90;99.90
22202;DHT22;11266;51.522;6.302;2024-03-23T05:43:42;5.90;99.90
22202;DHT22;11266;51.522;6.302;2024-03-23T05:44:27;5.90;99.90
22202;DHT22;11266;51.522;6.302;2024-03-23T05:45:13;5.90;99.90
22202;DHT22;11266;51.522;6.302;2024-03-23T05:45:59;5.90;99.90
22202;DHT22;11266;51.522;6.302;2024-03-23T05:46:46;5.90;99.90
22202;DHT22;11266;51.522;6.302;2024-03-23T05:47:34;5.90;99.90